createdAt,value
2019-05-28T00:02:02.240Z,8.23
2019-05-28T00:04:31.365Z,8.27
2019-05-28T00:07:00.356Z,7.70
2019-05-28T00:09:29.168Z,6.07
2019-05-28T00:11:57.902Z,9.40
2019-05-28T00:14:26.706Z,9.30
2019-05-28T00:16:55.515Z,8.63
2019-05-28T00:19:24.301Z,8.93
2019-05-28T00:21:53.361Z,7.47
2019-05-28T00:24:22.488Z,9.63
2019-05-28T00:26:51.465Z,9.13
2019-05-28T00:29:20.476Z,7.90
2019-05-28T00:31:49.251Z,8.57
2019-05-28T00:34:18.446Z,8.00
2019-05-28T00:36:47.163Z,9.30
2019-05-28T00:39:16.121Z,8.03
2019-05-28T00:41:44.939Z,6.70
2019-05-28T00:44:13.723Z,7.70
2019-05-28T00:46:42.549Z,8.90
2019-05-28T00:49:11.322Z,7.50
2019-05-28T00:51:41.031Z,9.53
2019-05-28T00:54:09.888Z,8.73
2019-05-28T00:56:39.179Z,7.93
2019-05-28T00:59:08.288Z,8.13
2019-05-28T01:01:37.345Z,9.40
2019-05-28T01:04:06.187Z,7.30
2019-05-28T01:06:35.477Z,7.63
2019-05-28T01:09:06.091Z,7.77
2019-05-28T01:11:34.839Z,8.80
2019-05-28T01:14:03.671Z,9.10
2019-05-28T01:16:32.796Z,8.23
2019-05-28T01:19:01.593Z,8.37
2019-05-28T01:21:30.774Z,7.60
2019-05-28T01:23:59.628Z,7.30
2019-05-28T01:26:28.746Z,9.87
2019-05-28T01:28:57.583Z,8.20
2019-05-28T01:31:26.618Z,8.13
2019-05-28T01:33:55.363Z,8.00
2019-05-28T01:36:24.168Z,8.33
2019-05-28T01:38:52.920Z,7.03
2019-05-28T01:41:21.715Z,6.93
2019-05-28T01:43:50.748Z,8.28
2019-05-28T01:46:19.580Z,8.00
2019-05-28T01:48:48.438Z,9.00
2019-05-28T01:51:17.291Z,9.45
2019-05-28T01:53:46.121Z,8.17
2019-05-28T01:56:14.875Z,7.63
2019-05-28T01:58:43.691Z,7.90
2019-05-28T02:01:13.396Z,10.30
2019-05-28T02:03:42.363Z,8.73
2019-05-28T02:06:11.311Z,8.23
2019-05-28T02:08:40.314Z,9.93
2019-05-28T02:11:09.078Z,10.70
2019-05-28T02:13:37.865Z,10.25
2019-05-28T02:16:06.994Z,7.85
2019-05-28T02:18:35.766Z,9.17
2019-05-28T02:21:04.612Z,7.67
2019-05-28T02:23:33.598Z,8.90
2019-05-28T02:26:02.596Z,9.60
2019-05-28T02:28:31.328Z,7.97
2019-05-28T02:31:00.075Z,9.40
2019-05-28T02:33:29.053Z,9.60
2019-05-28T02:35:57.830Z,10.10
2019-05-28T02:38:26.588Z,9.90
2019-05-28T02:40:55.768Z,9.45
2019-05-28T02:43:25.010Z,10.70
2019-05-28T02:45:54.092Z,13.05
2019-05-28T02:48:23.031Z,12.07
2019-05-28T02:51:02.960Z,14.05
2019-05-28T02:53:32.633Z,12.93
2019-05-28T02:56:01.527Z,13.23
2019-05-28T02:58:33.805Z,15.40
2019-05-28T03:01:03.348Z,14.50
2019-05-28T03:03:32.331Z,15.47
2019-05-28T03:06:01.712Z,15.72
2019-05-28T03:08:31.050Z,15.23
2019-05-28T03:11:03.607Z,15.57
2019-05-28T03:13:31.542Z,15.43
2019-05-28T03:16:03.009Z,16.85
2019-05-28T03:18:34.892Z,16.40
2019-05-28T03:21:05.274Z,16.50
2019-05-28T03:23:37.256Z,16.80
2019-05-28T03:26:06.567Z,16.57
2019-05-28T03:28:36.328Z,15.70
2019-05-28T03:31:05.611Z,13.55
2019-05-28T03:33:34.434Z,12.30
2019-05-28T03:36:04.968Z,11.70
2019-05-28T03:38:35.103Z,11.23
2019-05-28T03:41:03.872Z,10.70
2019-05-28T03:43:32.727Z,10.72
2019-05-28T03:46:01.543Z,12.13
2019-05-28T03:48:30.660Z,12.15
2019-05-28T03:50:59.457Z,12.23
2019-05-28T03:53:28.255Z,12.40
2019-05-28T03:55:57.011Z,11.83
2019-05-28T03:58:25.909Z,12.90
2019-05-28T04:00:54.713Z,13.93
2019-05-28T04:03:23.664Z,16.42
2019-05-28T04:05:52.428Z,15.20
2019-05-28T04:08:21.244Z,14.33
2019-05-28T04:10:50.024Z,18.05
2019-05-28T04:13:18.965Z,18.98
2019-05-28T04:15:47.840Z,17.10
2019-05-28T04:18:16.604Z,21.07
2019-05-28T04:20:45.723Z,17.92
2019-05-28T04:23:17.817Z,21.33
2019-05-28T04:25:47.216Z,22.27
2019-05-28T04:28:16.162Z,23.25
2019-05-28T04:30:45.150Z,19.32
2019-05-28T04:33:14.258Z,24.70
2019-05-28T04:35:43.158Z,23.45
2019-05-28T04:38:12.004Z,20.48
2019-05-28T04:40:40.892Z,21.62
2019-05-28T04:43:09.680Z,20.00
2019-05-28T04:45:38.445Z,24.25
2019-05-28T04:48:07.207Z,21.60
2019-05-28T04:50:36.090Z,22.15
2019-05-28T04:53:05.245Z,21.52
2019-05-28T04:55:34.332Z,21.65
2019-05-28T04:58:03.135Z,21.40
2019-05-28T05:00:32.299Z,19.55
2019-05-28T05:03:01.401Z,19.87
2019-05-28T05:05:30.494Z,19.98
2019-05-28T05:07:59.612Z,20.77
2019-05-28T05:10:31.214Z,22.30
2019-05-28T05:13:00.116Z,22.73
2019-05-28T05:15:29.319Z,21.35
2019-05-28T05:17:58.590Z,20.95
2019-05-28T05:20:27.692Z,21.57
2019-05-28T05:22:56.492Z,24.67
2019-05-28T05:25:25.404Z,21.95
2019-05-28T05:27:54.295Z,23.27
2019-05-28T05:30:23.248Z,22.42
2019-05-28T05:32:52.082Z,23.25
2019-05-28T05:35:20.922Z,20.80
2019-05-28T05:37:49.723Z,24.12
2019-05-28T05:40:19.081Z,23.07
2019-05-28T05:42:47.978Z,24.63
2019-05-28T05:45:17.456Z,23.22
2019-05-28T05:47:46.371Z,23.07
2019-05-28T05:50:16.607Z,23.00
2019-05-28T05:52:45.376Z,24.10
2019-05-28T05:55:14.248Z,23.98
2019-05-28T05:57:43.119Z,20.30
2019-05-28T06:00:12.210Z,22.25
2019-05-28T06:02:41.145Z,23.15
2019-05-28T06:05:10.104Z,20.12
2019-05-28T06:07:39.024Z,20.50
2019-05-28T06:10:08.191Z,21.00
2019-05-28T06:12:37.276Z,21.17
2019-05-28T06:15:06.789Z,22.87
2019-05-28T06:17:35.911Z,22.00
2019-05-28T06:20:06.458Z,17.32
2019-05-28T06:22:35.500Z,20.75
2019-05-28T06:25:05.209Z,16.35
2019-05-28T06:27:34.048Z,18.92
2019-05-28T06:30:03.065Z,20.45
2019-05-28T06:32:33.886Z,19.10
2019-05-28T06:35:02.586Z,20.97
2019-05-28T06:37:31.418Z,17.45
2019-05-28T06:40:00.310Z,15.93
2019-05-28T06:42:29.132Z,21.10
2019-05-28T06:44:57.933Z,19.60
2019-05-28T06:47:26.778Z,17.90
2019-05-28T06:49:55.573Z,20.60
2019-05-28T06:52:24.385Z,21.15
2019-05-28T06:54:53.206Z,24.32
2019-05-28T06:57:23.434Z,19.07
2019-05-28T06:59:52.629Z,22.45
2019-05-28T07:02:21.519Z,24.70
2019-05-28T07:04:50.294Z,25.50
2019-05-28T07:07:19.075Z,22.80
2019-05-28T07:09:47.839Z,19.40
2019-05-28T07:12:18.285Z,22.65
2019-05-28T07:14:47.203Z,17.50
2019-05-28T07:17:16.320Z,17.05
2019-05-28T07:19:45.097Z,17.80
2019-05-28T07:22:13.942Z,17.40
2019-05-28T07:24:42.801Z,15.60
2019-05-28T07:27:11.718Z,18.77
2019-05-28T07:29:40.677Z,16.73
2019-05-28T07:32:09.440Z,18.37
2019-05-28T07:34:38.225Z,20.45
2019-05-28T07:37:07.355Z,19.25
2019-05-28T07:39:36.524Z,18.20
2019-05-28T07:42:05.978Z,17.23
2019-05-28T07:44:34.787Z,16.55
2019-05-28T07:47:03.771Z,18.57
2019-05-28T07:49:32.567Z,15.83
2019-05-28T07:52:01.334Z,13.80
2019-05-28T07:54:30.103Z,11.73
2019-05-28T07:56:58.875Z,10.72
2019-05-28T07:59:27.759Z,9.60
2019-05-28T08:01:56.626Z,13.18
2019-05-28T08:04:25.782Z,11.57
2019-05-28T08:06:55.509Z,11.12
2019-05-28T08:09:24.388Z,10.95
2019-05-28T08:11:53.244Z,13.05
2019-05-28T08:14:22.311Z,10.98
2019-05-28T08:16:52.958Z,10.93
2019-05-28T08:19:21.951Z,11.43
2019-05-28T08:21:50.749Z,13.00
2019-05-28T08:24:22.905Z,11.78
2019-05-28T08:26:50.730Z,12.73
2019-05-28T08:29:19.591Z,13.58
2019-05-28T08:31:48.374Z,14.13
2019-05-28T08:34:19.599Z,9.88
2019-05-28T08:37:04.291Z,11.95
2019-05-28T08:39:18.495Z,10.85
2019-05-28T08:41:47.460Z,9.85
2019-05-28T08:44:16.310Z,13.03
2019-05-28T08:46:45.253Z,12.23
2019-05-28T08:49:14.296Z,11.85
2019-05-28T08:51:43.089Z,10.08
2019-05-28T08:54:12.096Z,10.32
2019-05-28T08:56:40.928Z,9.83
2019-05-28T08:59:09.817Z,9.35
2019-05-28T09:01:38.887Z,10.32
2019-05-28T09:04:07.794Z,11.43
2019-05-28T09:06:36.663Z,11.05
2019-05-28T09:09:07.177Z,9.57
2019-05-28T09:11:36.140Z,11.90
2019-05-28T09:14:05.322Z,8.83
2019-05-28T09:16:34.146Z,15.43
2019-05-28T09:19:03.437Z,11.40
2019-05-28T09:21:32.204Z,14.00
2019-05-28T09:24:01.103Z,13.10
2019-05-28T09:26:30.380Z,12.15
2019-05-28T09:28:59.352Z,15.28
2019-05-28T09:31:28.147Z,15.58
2019-05-28T09:33:56.984Z,12.98
2019-05-28T09:36:25.797Z,15.77
2019-05-28T09:38:54.650Z,12.60
2019-05-28T09:41:23.376Z,13.47
2019-05-28T09:43:52.394Z,15.95
2019-05-28T09:46:21.162Z,15.90
2019-05-28T09:48:50.184Z,13.67
2019-05-28T09:51:18.998Z,11.03
2019-05-28T09:53:47.811Z,13.77
2019-05-28T09:56:16.587Z,12.03
2019-05-28T09:58:45.388Z,13.45
2019-05-28T10:01:14.625Z,12.20
2019-05-28T10:03:43.533Z,13.93
2019-05-28T10:06:17.352Z,13.07
2019-05-28T10:08:43.024Z,11.93
2019-05-28T10:11:11.797Z,11.80
2019-05-28T10:13:41.900Z,14.97
2019-05-28T10:16:10.871Z,11.03
2019-05-28T10:18:39.669Z,11.60
2019-05-28T10:21:18.423Z,11.13
2019-05-28T10:23:39.091Z,11.27
2019-05-28T10:26:07.943Z,9.93
2019-05-28T10:28:36.975Z,11.80
2019-05-28T10:31:06.209Z,9.83
2019-05-28T10:33:35.035Z,8.43
2019-05-28T10:36:03.760Z,11.40
2019-05-28T10:38:33.129Z,11.50
2019-05-28T10:41:01.940Z,6.70
2019-05-28T10:43:30.656Z,7.50
2019-05-28T10:45:59.939Z,5.73
2019-05-28T10:48:32.651Z,9.13
2019-05-28T10:51:01.477Z,10.13
2019-05-28T10:53:30.298Z,9.20
2019-05-28T10:56:00.722Z,8.17
2019-05-28T10:58:29.524Z,6.53
2019-05-28T11:00:58.331Z,8.30
2019-05-28T11:03:27.088Z,6.80
2019-05-28T11:05:55.936Z,7.60
2019-05-28T11:08:24.978Z,5.90
2019-05-28T11:10:54.589Z,5.30
2019-05-28T11:13:23.387Z,5.83
2019-05-28T11:15:52.163Z,6.20
2019-05-28T11:18:20.999Z,6.53
2019-05-28T11:20:49.924Z,8.47
2019-05-28T11:23:18.895Z,8.53
2019-05-28T11:25:47.908Z,7.47
2019-05-28T11:28:16.728Z,6.20
2019-05-28T11:30:45.506Z,7.60
2019-05-28T11:33:17.337Z,8.40
2019-05-28T11:35:45.397Z,7.67
2019-05-28T11:38:14.237Z,6.07
2019-05-28T11:40:43.133Z,7.07
2019-05-28T11:43:11.883Z,7.13
2019-05-28T11:45:40.635Z,6.20
2019-05-28T11:48:10.037Z,7.37
2019-05-28T11:50:39.141Z,7.13
2019-05-28T11:53:07.895Z,6.97
2019-05-28T11:55:36.710Z,5.60
2019-05-28T11:58:05.638Z,8.10
2019-05-28T12:00:34.677Z,5.90
2019-05-28T12:03:03.630Z,7.97
2019-05-28T12:05:32.740Z,7.63
2019-05-28T12:08:01.835Z,7.17
2019-05-28T12:10:31.069Z,6.07
2019-05-28T12:12:59.814Z,5.43
2019-05-28T12:15:28.738Z,7.90
2019-05-28T12:17:57.637Z,7.20
2019-05-28T12:20:28.421Z,6.37
2019-05-28T12:23:10.329Z,7.60
2019-05-28T12:25:29.331Z,6.60
2019-05-28T12:27:58.082Z,5.70
2019-05-28T12:30:27.250Z,7.00
2019-05-28T12:32:56.237Z,7.57
2019-05-28T12:35:29.266Z,9.00
2019-05-28T12:37:55.648Z,6.43
2019-05-28T12:40:25.148Z,8.03
2019-05-28T12:42:54.268Z,8.17
2019-05-28T12:45:34.962Z,10.10
2019-05-28T12:48:10.150Z,7.17
2019-05-28T12:50:24.438Z,8.47
2019-05-28T12:52:53.417Z,8.70
2019-05-28T12:55:23.900Z,9.83
2019-05-28T12:57:52.823Z,9.80
2019-05-28T13:00:22.290Z,7.63
2019-05-28T13:02:51.094Z,7.37
2019-05-28T13:05:22.333Z,7.70
2019-05-28T13:08:07.237Z,8.00
2019-05-28T13:10:21.755Z,6.60
2019-05-28T13:12:50.722Z,10.17
2019-05-28T13:15:20.145Z,8.40
2019-05-28T13:17:49.200Z,8.37
2019-05-28T13:20:18.986Z,7.53
2019-05-28T13:22:47.828Z,9.20
2019-05-28T13:25:16.850Z,7.87
2019-05-28T13:27:45.647Z,7.57
2019-05-28T13:30:16.513Z,9.17
2019-05-28T13:32:45.672Z,8.10
2019-05-28T13:35:16.982Z,9.63
2019-05-28T13:37:45.777Z,8.60
2019-05-28T13:40:15.357Z,8.83
2019-05-28T13:42:44.573Z,9.50
2019-05-28T13:45:14.924Z,7.30
2019-05-28T13:47:43.949Z,9.10
2019-05-28T13:50:14.903Z,10.20
2019-05-28T13:52:43.769Z,9.43
2019-05-28T13:55:13.334Z,8.13
2019-05-28T13:57:42.138Z,8.90
2019-05-28T14:00:12.094Z,10.30
2019-05-28T14:02:45.777Z,11.27
2019-05-28T14:05:12.337Z,9.43
2019-05-28T14:07:41.198Z,8.00
2019-05-28T14:10:10.550Z,9.60
2019-05-28T14:12:39.310Z,9.37
2019-05-28T14:15:09.471Z,8.30
2019-05-28T14:17:38.332Z,9.77
2019-05-28T14:20:09.576Z,9.17
2019-05-28T14:22:38.873Z,8.60
2019-05-28T14:25:07.960Z,9.37
2019-05-28T14:27:36.920Z,10.17
2019-05-28T14:30:06.848Z,9.20
2019-05-28T14:32:35.629Z,12.03
2019-05-28T14:35:05.582Z,9.13
2019-05-28T14:37:34.361Z,10.27
2019-05-28T14:40:03.079Z,7.73
2019-05-28T14:42:31.853Z,9.63
2019-05-28T14:45:00.788Z,13.37
2019-05-28T14:47:29.567Z,9.80
2019-05-28T14:49:58.405Z,8.90
2019-05-28T14:52:27.349Z,9.17
2019-05-28T14:54:56.136Z,8.70
2019-05-28T14:57:25.185Z,8.40
2019-05-28T14:59:54.022Z,9.83
2019-05-28T15:02:22.893Z,8.30
2019-05-28T15:04:51.725Z,9.70
2019-05-28T15:07:20.613Z,9.13
2019-05-28T15:09:50.986Z,9.70
2019-05-28T15:12:19.812Z,8.33
2019-05-28T15:14:48.694Z,11.17
2019-05-28T15:17:21.188Z,9.27
2019-05-28T15:19:50.041Z,12.57
2019-05-28T15:22:19.113Z,9.30
2019-05-28T15:24:49.993Z,11.20
2019-05-28T15:27:18.855Z,9.90
2019-05-28T15:29:49.817Z,10.57
2019-05-28T15:32:18.824Z,9.13
2019-05-28T15:34:47.765Z,8.70
2019-05-28T15:37:20.084Z,7.70
2019-05-28T15:39:48.925Z,9.80
2019-05-28T15:42:21.005Z,9.20
2019-05-28T15:44:49.830Z,10.00
2019-05-28T15:47:18.729Z,9.37
2019-05-28T15:49:47.536Z,7.60
2019-05-28T15:52:16.311Z,8.33
2019-05-28T15:54:45.070Z,11.97
2019-05-28T15:57:14.244Z,9.10
2019-05-28T15:59:43.059Z,12.43
2019-05-28T16:02:11.803Z,9.47
2019-05-28T16:04:40.568Z,8.87
2019-05-28T16:07:09.397Z,9.23
2019-05-28T16:09:53.101Z,11.43
2019-05-28T16:12:08.627Z,12.27
2019-05-28T16:14:37.425Z,13.47
2019-05-28T16:17:06.261Z,12.20
2019-05-28T16:19:35.097Z,11.60
2019-05-28T16:22:04.304Z,13.70
2019-05-28T16:24:33.302Z,15.47
2019-05-28T16:27:02.227Z,16.13
2019-05-28T16:29:31.194Z,18.23
2019-05-28T16:32:00.439Z,17.60
2019-05-28T16:34:29.224Z,16.60
2019-05-28T16:36:58.196Z,15.00
2019-05-28T16:39:27.509Z,15.17
2019-05-28T16:41:57.001Z,17.15
2019-05-28T16:44:27.294Z,20.40
2019-05-28T16:47:14.782Z,15.73
2019-05-28T16:49:27.096Z,17.87
2019-05-28T16:51:55.896Z,16.25
2019-05-28T16:54:25.046Z,18.98
2019-05-28T16:56:54.164Z,17.83
2019-05-28T16:59:23.012Z,13.93
2019-05-28T17:01:51.863Z,17.97
2019-05-28T17:04:20.749Z,16.60
2019-05-28T17:06:49.505Z,17.90
2019-05-28T17:09:18.608Z,17.98
2019-05-28T17:11:47.476Z,15.60
2019-05-28T17:14:16.304Z,15.50
2019-05-28T17:16:45.115Z,14.50
2019-05-28T17:19:13.980Z,14.53
2019-05-28T17:21:42.897Z,15.03
2019-05-28T17:24:11.827Z,16.73
2019-05-28T17:26:40.740Z,16.05
2019-05-28T17:29:10.170Z,15.23
2019-05-28T17:31:39.152Z,14.25
2019-05-28T17:34:08.258Z,15.08
2019-05-28T17:36:37.179Z,12.98
2019-05-28T17:39:07.514Z,14.27
2019-05-28T17:41:36.597Z,12.47
2019-05-28T17:44:05.582Z,12.60
2019-05-28T17:46:34.736Z,14.50
2019-05-28T17:49:03.499Z,10.80
2019-05-28T17:51:32.275Z,12.70
2019-05-28T17:54:01.071Z,13.45
2019-05-28T17:56:30.414Z,14.15
2019-05-28T17:58:59.478Z,13.90
2019-05-28T18:01:28.365Z,16.85
2019-05-28T18:03:57.601Z,15.35
2019-05-28T18:06:26.467Z,16.40
2019-05-28T18:08:57.047Z,14.75
2019-05-28T18:11:25.891Z,12.88
2019-05-28T18:13:55.019Z,13.55
2019-05-28T18:16:23.944Z,14.40
2019-05-28T18:18:52.804Z,13.30
2019-05-28T18:21:21.848Z,14.50
2019-05-28T18:23:51.144Z,17.37
2019-05-28T18:26:19.995Z,14.87
2019-05-28T18:28:48.829Z,15.50
2019-05-28T18:31:17.711Z,14.98
2019-05-28T18:33:46.652Z,15.00
2019-05-28T18:36:15.655Z,16.77
2019-05-28T18:38:44.525Z,15.85
2019-05-28T18:41:21.577Z,14.20
2019-05-28T18:43:44.167Z,14.63
2019-05-28T18:46:15.406Z,17.82
2019-05-28T18:48:44.028Z,15.10
2019-05-28T18:51:12.846Z,18.35
2019-05-28T18:53:41.657Z,15.60
2019-05-28T18:56:17.596Z,15.95
2019-05-28T18:58:41.618Z,15.50
2019-05-28T19:01:11.024Z,17.15
2019-05-28T19:03:39.849Z,17.02
2019-05-28T19:06:08.870Z,13.98
2019-05-28T19:08:37.885Z,16.90
2019-05-28T19:11:06.894Z,18.45
2019-05-28T19:13:35.934Z,16.37
2019-05-28T19:16:05.155Z,19.02
2019-05-28T19:18:33.936Z,17.10
2019-05-28T19:21:03.032Z,19.65
2019-05-28T19:23:32.348Z,18.05
2019-05-28T19:26:01.171Z,15.55
2019-05-28T19:28:29.945Z,16.23
2019-05-28T19:30:59.043Z,15.83
2019-05-28T19:33:28.374Z,20.55
2019-05-28T19:35:57.502Z,18.15
2019-05-28T19:38:44.131Z,15.90
2019-05-28T19:40:57.733Z,18.67
2019-05-28T19:43:26.642Z,18.45
2019-05-28T19:45:55.456Z,18.37
2019-05-28T19:48:24.301Z,19.25
2019-05-28T19:50:53.585Z,20.08
2019-05-28T19:53:22.363Z,18.82
2019-05-28T19:55:51.166Z,21.05
2019-05-28T19:58:20.004Z,18.12
2019-05-28T20:00:49.092Z,17.50
2019-05-28T20:03:18.160Z,18.40
2019-05-28T20:05:47.218Z,18.57
2019-05-28T20:08:16.041Z,18.05
2019-05-28T20:10:44.923Z,17.82
2019-05-28T20:13:13.669Z,20.37
2019-05-28T20:15:42.430Z,18.52
2019-05-28T20:18:25.949Z,17.02
2019-05-28T20:20:42.157Z,18.62
2019-05-28T20:23:11.003Z,18.17
2019-05-28T20:25:39.788Z,16.07
2019-05-28T20:28:08.799Z,16.42
2019-05-28T20:30:37.682Z,18.85
2019-05-28T20:33:07.413Z,15.63
2019-05-28T20:35:36.312Z,15.08
2019-05-28T20:38:08.805Z,15.30
2019-05-28T20:40:35.640Z,13.40
2019-05-28T20:43:04.712Z,15.43
2019-05-28T20:45:33.525Z,14.20
2019-05-28T20:48:02.591Z,13.05
2019-05-28T20:50:31.627Z,13.10
2019-05-28T20:53:00.606Z,14.13
2019-05-28T20:55:29.409Z,13.00
2019-05-28T20:57:58.313Z,13.35
2019-05-28T21:00:27.164Z,11.88
2019-05-28T21:02:56.020Z,15.90
2019-05-28T21:05:24.824Z,17.05
2019-05-28T21:07:54.665Z,12.95
2019-05-28T21:10:23.768Z,13.68
2019-05-28T21:12:52.682Z,10.75
2019-05-28T21:15:21.607Z,11.83
2019-05-28T21:17:51.130Z,12.25
2019-05-28T21:20:20.910Z,9.98
2019-05-28T21:22:50.172Z,10.30
2019-05-28T21:25:19.081Z,8.50
2019-05-28T21:27:47.927Z,7.33
2019-05-28T21:30:17.060Z,7.62
2019-05-28T21:32:46.178Z,8.40
2019-05-28T21:35:15.617Z,6.45
2019-05-28T21:37:44.529Z,7.30
2019-05-28T21:40:14.260Z,8.40
2019-05-28T21:42:58.244Z,7.15
2019-05-28T21:45:14.736Z,6.90
2019-05-28T21:47:43.812Z,7.83
2019-05-28T21:50:13.143Z,8.40
2019-05-28T21:52:41.996Z,7.80
2019-05-28T21:55:11.314Z,8.13
2019-05-28T21:57:40.365Z,7.67
2019-05-28T22:00:14.425Z,8.43
2019-05-28T22:02:43.645Z,10.03
2019-05-28T22:05:14.057Z,10.38
2019-05-28T22:07:42.892Z,9.63
2019-05-28T22:10:12.171Z,11.60
2019-05-28T22:12:41.308Z,8.93
2019-05-28T22:15:10.360Z,8.28
2019-05-28T22:17:39.736Z,9.55
2019-05-28T22:20:08.902Z,9.80
2019-05-28T22:22:37.715Z,9.30
2019-05-28T22:25:06.684Z,8.80
2019-05-28T22:27:35.525Z,8.68
2019-05-28T22:30:06.316Z,11.00
2019-05-28T22:32:36.005Z,10.55
2019-05-28T22:35:05.447Z,8.65
2019-05-28T22:37:34.312Z,9.00
2019-05-28T22:40:03.467Z,9.58
2019-05-28T22:42:32.359Z,9.00
2019-05-28T22:45:01.144Z,9.53
2019-05-28T22:47:30.033Z,9.03
2019-05-28T22:50:13.629Z,10.10
2019-05-28T22:52:29.351Z,9.28
2019-05-28T22:54:58.390Z,9.23
2019-05-28T22:57:27.159Z,10.15
2019-05-28T22:59:55.914Z,9.03
2019-05-28T23:02:24.737Z,9.48
2019-05-28T23:04:53.621Z,7.92
2019-05-28T23:07:22.463Z,10.03
2019-05-28T23:09:51.340Z,11.12
2019-05-28T23:12:20.140Z,9.03
2019-05-28T23:14:49.018Z,10.65
2019-05-28T23:17:18.110Z,8.75
2019-05-28T23:19:46.965Z,11.57
2019-05-28T23:22:15.748Z,15.58
2019-05-28T23:24:44.856Z,10.63
2019-05-28T23:27:13.947Z,12.82
2019-05-28T23:29:42.918Z,11.55
2019-05-28T23:32:12.432Z,11.20
2019-05-28T23:34:41.282Z,11.88
2019-05-28T23:37:10.969Z,12.50
2019-05-28T23:39:39.850Z,14.83
2019-05-28T23:42:09.367Z,11.60
2019-05-28T23:44:38.450Z,13.65
2019-05-28T23:47:08.030Z,15.20
2019-05-28T23:49:36.916Z,14.73
2019-05-28T23:52:06.607Z,15.25
2019-05-28T23:54:35.701Z,16.15
2019-05-28T23:57:05.751Z,16.45
2019-05-28T23:59:34.607Z,16.20
